createdAt,value
2017-06-25T00:02:30.548Z,8.67
2017-06-25T00:05:03.220Z,8.53
2017-06-25T00:07:35.155Z,10.50
2017-06-25T00:10:07.524Z,8.63
2017-06-25T00:12:39.912Z,10.17
2017-06-25T00:15:12.246Z,11.00
2017-06-25T00:17:44.473Z,10.17
2017-06-25T00:20:16.915Z,11.43
2017-06-25T00:22:49.447Z,11.77
2017-06-25T00:25:21.866Z,12.97
2017-06-25T00:27:54.211Z,13.90
2017-06-25T00:30:26.623Z,13.93
2017-06-25T00:32:58.918Z,13.83
2017-06-25T00:35:31.379Z,12.90
2017-06-25T00:38:03.777Z,12.50
2017-06-25T00:40:36.968Z,14.77
2017-06-25T00:43:09.480Z,16.27
2017-06-25T00:45:42.003Z,15.97
2017-06-25T00:48:15.287Z,14.97
2017-06-25T00:50:48.534Z,14.83
2017-06-25T00:53:27.355Z,14.83
2017-06-25T00:55:59.568Z,15.20
2017-06-25T00:58:31.851Z,14.37
2017-06-25T01:01:04.214Z,16.13
2017-06-25T01:03:36.850Z,16.63
2017-06-25T01:06:09.988Z,17.13
2017-06-25T01:08:42.244Z,18.47
2017-06-25T01:11:14.998Z,16.97
2017-06-25T01:13:47.147Z,17.17
2017-06-25T01:16:19.511Z,17.13
2017-06-25T01:18:52.663Z,17.67
2017-06-25T01:21:25.240Z,17.40
2017-06-25T01:23:58.283Z,16.60
2017-06-25T01:26:31.409Z,15.43
2017-06-25T01:29:03.415Z,16.40
2017-06-25T01:31:35.980Z,18.73
2017-06-25T01:34:08.131Z,16.63
2017-06-25T01:36:40.518Z,17.13
2017-06-25T01:39:12.874Z,16.57
2017-06-25T01:41:45.310Z,16.43
2017-06-25T01:44:17.739Z,15.77
2017-06-25T01:46:50.180Z,16.07
2017-06-25T01:49:23.871Z,16.47
2017-06-25T01:51:56.017Z,15.70
2017-06-25T01:54:28.326Z,17.47
2017-06-25T01:57:00.774Z,17.20
2017-06-25T01:59:33.952Z,17.97
2017-06-25T02:02:07.073Z,17.53
2017-06-25T02:04:38.855Z,17.53
2017-06-25T02:07:11.151Z,15.80
2017-06-25T02:09:43.516Z,17.03
2017-06-25T02:12:15.915Z,16.03
2017-06-25T02:14:49.200Z,17.17
2017-06-25T02:17:21.656Z,15.20
2017-06-25T02:19:54.506Z,16.57
2017-06-25T02:22:27.799Z,16.07
2017-06-25T02:24:59.843Z,18.60
2017-06-25T02:27:32.271Z,16.30
2017-06-25T02:30:04.848Z,16.73
2017-06-25T02:32:37.237Z,15.83
2017-06-25T02:35:09.625Z,15.70
2017-06-25T02:37:43.520Z,16.23
2017-06-25T02:40:15.359Z,15.80
2017-06-25T02:42:47.666Z,15.37
2017-06-25T02:45:20.387Z,15.20
2017-06-25T02:47:52.587Z,14.50
2017-06-25T02:50:25.725Z,15.73
2017-06-25T02:52:59.600Z,14.67
2017-06-25T02:55:32.915Z,13.53
2017-06-25T02:58:05.456Z,14.03
2017-06-25T03:00:37.851Z,15.47
2017-06-25T03:03:10.200Z,15.10
2017-06-25T03:05:42.574Z,14.80
2017-06-25T03:08:15.637Z,14.33
2017-06-25T03:10:47.448Z,14.50
2017-06-25T03:13:19.762Z,14.97
2017-06-25T03:15:52.507Z,14.90
2017-06-25T03:18:25.875Z,13.33
2017-06-25T03:20:58.023Z,15.47
2017-06-25T03:23:31.549Z,15.33
2017-06-25T03:26:04.880Z,12.67
2017-06-25T03:28:37.363Z,13.80
2017-06-25T03:31:09.657Z,13.57
2017-06-25T03:33:42.139Z,15.10
2017-06-25T03:36:15.424Z,14.83
2017-06-25T03:38:48.082Z,14.60
2017-06-25T03:41:20.496Z,12.83
2017-06-25T03:43:52.999Z,14.90
2017-06-25T03:46:25.243Z,15.77
2017-06-25T03:48:57.659Z,15.33
2017-06-25T03:51:30.027Z,14.97
2017-06-25T03:54:02.395Z,15.23
2017-06-25T03:56:34.840Z,17.13
2017-06-25T03:59:07.275Z,16.47
2017-06-25T04:01:39.719Z,16.10
2017-06-25T04:04:13.233Z,15.73
2017-06-25T04:06:45.562Z,17.43
2017-06-25T04:09:18.800Z,17.00
2017-06-25T04:11:51.531Z,17.33
2017-06-25T04:14:23.576Z,15.43
2017-06-25T04:16:56.279Z,17.53
2017-06-25T04:19:28.584Z,18.77
2017-06-25T04:22:00.763Z,18.37
2017-06-25T04:24:33.118Z,16.97
2017-06-25T04:27:05.491Z,16.93
2017-06-25T04:29:37.855Z,18.20
2017-06-25T04:32:10.107Z,16.53
2017-06-25T04:34:42.417Z,17.17
2017-06-25T04:37:14.732Z,17.07
2017-06-25T04:39:47.123Z,17.73
2017-06-25T04:42:19.488Z,19.20
2017-06-25T04:44:51.823Z,18.70
2017-06-25T04:47:24.228Z,15.27
2017-06-25T04:49:56.567Z,16.53
2017-06-25T04:52:28.928Z,16.30
2017-06-25T04:55:01.374Z,16.07
2017-06-25T04:57:33.924Z,13.77
2017-06-25T05:00:07.150Z,13.87
2017-06-25T05:02:39.535Z,16.17
2017-06-25T05:05:11.922Z,14.90
2017-06-25T05:07:44.411Z,12.63
2017-06-25T05:10:16.780Z,14.47
2017-06-25T05:12:49.052Z,12.77
2017-06-25T05:15:21.407Z,13.30
2017-06-25T05:17:53.855Z,14.60
2017-06-25T05:20:26.294Z,12.43
2017-06-25T05:22:58.539Z,12.80
2017-06-25T05:25:30.974Z,12.20
2017-06-25T05:28:03.252Z,15.20
2017-06-25T05:30:35.660Z,12.23
2017-06-25T05:33:08.124Z,12.57
2017-06-25T05:35:42.051Z,12.10
2017-06-25T05:38:14.824Z,13.37
2017-06-25T05:40:47.196Z,12.80
2017-06-25T05:43:19.557Z,12.43
2017-06-25T05:45:52.434Z,13.27
2017-06-25T05:48:24.299Z,13.80
2017-06-25T05:50:56.941Z,13.00
2017-06-25T05:53:29.527Z,13.33
2017-06-25T05:56:01.604Z,12.37
2017-06-25T05:58:33.820Z,12.93
2017-06-25T06:01:06.656Z,13.97
2017-06-25T06:03:38.474Z,13.60
2017-06-25T06:06:10.935Z,13.73
2017-06-25T06:08:43.436Z,19.33
2017-06-25T06:11:15.883Z,11.80
2017-06-25T06:13:49.072Z,13.13
2017-06-25T06:16:21.575Z,12.50
2017-06-25T06:18:54.879Z,11.20
2017-06-25T06:21:27.320Z,10.77
2017-06-25T06:23:59.756Z,10.20
2017-06-25T06:26:32.303Z,10.77
2017-06-25T06:29:04.563Z,10.17
2017-06-25T06:31:37.206Z,11.03
2017-06-25T06:34:09.374Z,11.40
2017-06-25T06:36:42.323Z,12.00
2017-06-25T06:39:14.915Z,11.93
2017-06-25T06:41:47.072Z,10.63
2017-06-25T06:44:19.558Z,11.53
2017-06-25T06:46:51.630Z,11.37
2017-06-25T06:49:24.091Z,10.83
2017-06-25T06:51:56.515Z,10.60
2017-06-25T06:54:29.023Z,10.57
2017-06-25T06:57:01.283Z,10.67
2017-06-25T06:59:34.587Z,12.03
2017-06-25T07:02:07.212Z,11.60
2017-06-25T07:04:39.683Z,10.50
2017-06-25T07:07:12.184Z,11.00
2017-06-25T07:09:44.622Z,10.70
2017-06-25T07:12:16.965Z,11.17
2017-06-25T07:14:49.686Z,11.40
2017-06-25T07:17:21.682Z,10.60
2017-06-25T07:19:54.027Z,11.17
2017-06-25T07:22:26.564Z,9.57
2017-06-25T07:24:58.948Z,11.30
2017-06-25T07:27:31.334Z,9.43
2017-06-25T07:30:03.730Z,9.60
2017-06-25T07:32:36.123Z,11.23
2017-06-25T07:35:08.900Z,10.13
2017-06-25T07:37:40.893Z,9.47
2017-06-25T07:40:13.308Z,9.53
2017-06-25T07:42:45.759Z,8.30
2017-06-25T07:45:18.111Z,8.83
2017-06-25T07:47:50.447Z,8.23
2017-06-25T07:50:23.640Z,7.80
2017-06-25T07:52:56.045Z,7.60
2017-06-25T07:55:28.370Z,8.20
2017-06-25T07:58:00.875Z,7.97
2017-06-25T08:00:33.677Z,8.07
2017-06-25T08:03:05.535Z,7.23
2017-06-25T08:05:37.896Z,8.43
2017-06-25T08:08:10.323Z,8.40
2017-06-25T08:10:42.687Z,7.80
2017-06-25T08:13:15.095Z,7.67
2017-06-25T08:15:47.422Z,9.10
2017-06-25T08:18:20.008Z,6.90
2017-06-25T08:20:52.298Z,6.30
2017-06-25T08:23:24.772Z,5.23
2017-06-25T08:25:57.247Z,5.80
2017-06-25T08:28:29.563Z,5.83
2017-06-25T08:31:02.011Z,5.77
2017-06-25T08:33:35.575Z,5.60
2017-06-25T08:36:07.948Z,5.00
2017-06-25T08:38:41.236Z,5.50
2017-06-25T08:41:13.635Z,5.43
2017-06-25T08:43:46.075Z,5.30
2017-06-25T08:46:18.712Z,5.67
2017-06-25T08:48:50.934Z,11.43
2017-06-25T08:51:23.190Z,4.60
2017-06-25T08:53:55.583Z,5.40
2017-06-25T08:56:27.903Z,5.20
2017-06-25T08:59:00.682Z,4.60
2017-06-25T09:01:32.735Z,4.83
2017-06-25T09:04:11.674Z,4.93
2017-06-25T09:06:43.604Z,6.00
2017-06-25T09:09:16.411Z,4.83
2017-06-25T09:11:48.311Z,6.17
2017-06-25T09:14:20.772Z,5.87
2017-06-25T09:16:53.187Z,6.10
2017-06-25T09:19:26.653Z,6.23
2017-06-25T09:22:05.259Z,5.63
2017-06-25T09:24:45.636Z,4.23
2017-06-25T09:27:19.823Z,5.63
2017-06-25T09:29:52.307Z,5.33
2017-06-25T09:32:24.591Z,5.80
2017-06-25T09:34:56.983Z,5.20
2017-06-25T09:37:29.227Z,6.97
2017-06-25T09:40:01.800Z,5.43
2017-06-25T09:42:34.053Z,4.87
2017-06-25T09:45:06.502Z,4.57
2017-06-25T09:47:49.079Z,4.57
2017-06-25T09:50:21.322Z,5.10
2017-06-25T09:52:53.700Z,4.77
2017-06-25T09:55:32.304Z,5.23
2017-06-25T09:58:04.608Z,4.80
2017-06-25T10:00:37.001Z,4.27
2017-06-25T10:03:19.578Z,5.20
2017-06-25T10:05:51.891Z,4.60
2017-06-25T10:08:24.337Z,4.50
2017-06-25T10:10:56.750Z,4.57
2017-06-25T10:13:39.579Z,4.80
2017-06-25T10:16:20.092Z,4.80
2017-06-25T10:18:52.063Z,4.60
2017-06-25T10:21:30.715Z,5.57
2017-06-25T10:24:02.896Z,5.10
2017-06-25T10:26:35.471Z,5.63
2017-06-25T10:29:07.796Z,5.93
2017-06-25T10:31:40.408Z,5.33
2017-06-25T10:34:12.759Z,4.93
2017-06-25T10:36:45.343Z,4.50
2017-06-25T10:39:17.601Z,4.73
2017-06-25T10:41:50.027Z,5.17
2017-06-25T10:44:33.010Z,3.80
2017-06-25T10:47:05.007Z,4.53
2017-06-25T10:49:37.392Z,8.87
2017-06-25T10:52:13.112Z,5.93
2017-06-25T10:54:55.483Z,7.10
2017-06-25T10:57:27.834Z,5.47
2017-06-25T11:00:00.312Z,5.23
2017-06-25T11:02:38.561Z,5.43
2017-06-25T11:05:11.576Z,5.73
2017-06-25T11:07:44.367Z,5.90
2017-06-25T11:10:17.104Z,5.43
2017-06-25T11:12:59.607Z,5.60
2017-06-25T11:15:31.612Z,5.90
2017-06-25T11:18:03.848Z,6.63
2017-06-25T11:20:36.264Z,6.13
2017-06-25T11:23:08.564Z,6.77
2017-06-25T11:25:41.823Z,7.17
2017-06-25T11:28:14.612Z,5.43
2017-06-25T11:30:46.903Z,5.53
2017-06-25T11:33:19.352Z,5.73
2017-06-25T11:35:51.762Z,8.00
2017-06-25T11:38:24.080Z,7.53
2017-06-25T11:40:56.608Z,6.40
2017-06-25T11:43:29.053Z,7.77
2017-06-25T11:46:01.690Z,6.00
2017-06-25T11:48:34.052Z,9.60
2017-06-25T11:51:06.925Z,6.80
2017-06-25T11:53:40.052Z,7.07
2017-06-25T11:56:11.920Z,7.13
2017-06-25T11:58:44.373Z,8.57
2017-06-25T12:01:17.024Z,8.70
2017-06-25T12:03:49.824Z,7.40
2017-06-25T12:06:23.237Z,7.87
2017-06-25T12:08:56.672Z,7.87
2017-06-25T12:11:29.231Z,8.03
2017-06-25T12:14:01.672Z,8.63
2017-06-25T12:16:34.267Z,7.90
2017-06-25T12:19:07.359Z,8.70
2017-06-25T12:21:39.623Z,8.23
2017-06-25T12:24:11.920Z,8.50
2017-06-25T12:26:44.994Z,8.93
2017-06-25T12:29:17.619Z,8.47
2017-06-25T12:31:49.943Z,9.10
2017-06-25T12:34:22.247Z,8.73
2017-06-25T12:36:54.579Z,8.00
2017-06-25T12:39:27.030Z,8.13
2017-06-25T12:41:59.384Z,8.77
2017-06-25T12:44:31.908Z,7.57
2017-06-25T12:47:04.007Z,8.43
2017-06-25T12:49:36.464Z,8.30
2017-06-25T12:52:08.794Z,9.27
2017-06-25T12:54:41.051Z,10.30
2017-06-25T12:57:13.448Z,9.43
2017-06-25T12:59:45.876Z,9.80
2017-06-25T13:02:18.010Z,9.67
2017-06-25T13:04:50.523Z,9.40
2017-06-25T13:07:23.620Z,9.90
2017-06-25T13:09:56.183Z,8.60
2017-06-25T13:12:28.582Z,8.30
2017-06-25T13:15:01.901Z,8.53
2017-06-25T13:17:34.296Z,9.00
2017-06-25T13:20:07.087Z,9.30
2017-06-25T13:22:39.080Z,7.83
2017-06-25T13:25:11.552Z,8.50
2017-06-25T13:27:43.944Z,8.13
2017-06-25T13:30:16.429Z,7.77
2017-06-25T13:32:48.747Z,8.47
2017-06-25T13:38:03.523Z,10.70
2017-06-25T13:40:36.132Z,11.73
2017-06-25T13:43:08.471Z,11.10
2017-06-25T13:45:40.765Z,11.80
2017-06-25T13:48:13.160Z,11.27
2017-06-25T13:50:45.822Z,11.33
2017-06-25T13:53:17.786Z,11.90
2017-06-25T13:55:52.307Z,12.10
2017-06-25T13:58:24.660Z,13.10
2017-06-25T14:00:57.105Z,12.73
2017-06-25T14:03:29.514Z,11.70
2017-06-25T14:06:01.511Z,11.50
2017-06-25T14:08:33.931Z,11.27
2017-06-25T14:11:07.111Z,10.17
2017-06-25T14:13:39.740Z,9.87
2017-06-25T14:16:12.224Z,9.23
2017-06-25T14:18:46.927Z,9.30
2017-06-25T14:21:18.998Z,10.40
2017-06-25T14:23:51.576Z,10.57
2017-06-25T14:26:24.695Z,9.80
2017-06-25T14:28:57.047Z,9.53
2017-06-25T14:31:29.435Z,8.87
2017-06-25T14:34:02.979Z,10.10
2017-06-25T14:36:35.380Z,9.87
2017-06-25T14:39:07.979Z,10.40
2017-06-25T14:41:39.900Z,9.07
2017-06-25T14:44:12.151Z,11.90
2017-06-25T14:46:44.627Z,11.10
2017-06-25T14:49:16.947Z,10.67
2017-06-25T14:51:49.755Z,10.77
2017-06-25T14:54:21.726Z,11.00
2017-06-25T14:56:54.159Z,10.63
2017-06-25T14:59:26.560Z,10.40
2017-06-25T15:01:59.395Z,9.77
2017-06-25T15:04:31.352Z,9.17
2017-06-25T15:07:03.847Z,9.70
2017-06-25T15:09:36.147Z,8.83
2017-06-25T15:12:08.548Z,9.00
2017-06-25T15:14:42.216Z,7.93
2017-06-25T15:17:14.456Z,7.17
2017-06-25T15:19:46.871Z,6.80
2017-06-25T15:22:19.392Z,8.33
2017-06-25T15:24:51.739Z,7.30
2017-06-25T15:27:24.905Z,7.30
2017-06-25T15:29:58.426Z,8.30
2017-06-25T15:32:30.875Z,9.43
2017-06-25T15:35:03.311Z,9.07
2017-06-25T15:37:35.656Z,9.00
2017-06-25T15:40:07.967Z,10.17
2017-06-25T15:42:41.172Z,9.40
2017-06-25T15:45:14.068Z,8.83
2017-06-25T15:47:46.003Z,9.53
2017-06-25T15:50:18.392Z,9.50
2017-06-25T15:52:51.811Z,8.60
2017-06-25T15:55:24.486Z,9.53
2017-06-25T15:57:56.968Z,10.80
2017-06-25T16:00:29.683Z,10.50
2017-06-25T16:03:02.355Z,10.07
2017-06-25T16:05:35.716Z,9.40
2017-06-25T16:08:08.203Z,10.63
2017-06-25T16:10:40.536Z,10.27
2017-06-25T16:13:13.152Z,9.57
2017-06-25T16:15:45.640Z,9.67
2017-06-25T16:18:17.879Z,8.20
2017-06-25T16:20:50.376Z,6.50
2017-06-25T16:23:22.683Z,9.37
2017-06-25T16:25:55.188Z,8.70
2017-06-25T16:28:27.531Z,8.07
2017-06-25T16:30:59.956Z,6.47
2017-06-25T16:33:32.356Z,6.73
2017-06-25T16:36:04.827Z,6.23
2017-06-25T16:38:37.126Z,6.20
2017-06-25T16:41:10.038Z,6.30
2017-06-25T16:43:42.049Z,6.63
2017-06-25T16:46:14.518Z,6.67
2017-06-25T16:48:47.599Z,5.83
2017-06-25T16:51:20.129Z,7.47
2017-06-25T16:53:53.519Z,6.37
2017-06-25T16:56:25.919Z,7.10
2017-06-25T16:58:58.445Z,6.73
2017-06-25T17:01:30.712Z,6.90
2017-06-25T17:04:03.875Z,7.93
2017-06-25T17:06:36.391Z,7.23
2017-06-25T17:09:09.711Z,7.33
2017-06-25T17:11:42.084Z,6.87
2017-06-25T17:14:15.554Z,6.47
2017-06-25T17:16:48.020Z,7.00
2017-06-25T17:19:20.420Z,7.57
2017-06-25T17:21:53.667Z,5.70
2017-06-25T17:24:26.091Z,6.70
2017-06-25T17:26:59.170Z,7.67
2017-06-25T17:29:31.626Z,6.47
2017-06-25T17:32:03.559Z,6.47
2017-06-25T17:34:36.520Z,6.90
2017-06-25T17:37:09.236Z,7.77
2017-06-25T17:39:42.456Z,7.60
2017-06-25T17:42:15.640Z,6.63
2017-06-25T17:44:47.473Z,7.30
2017-06-25T17:47:20.028Z,7.93
2017-06-25T17:49:52.320Z,6.90
2017-06-25T17:52:24.547Z,7.63
2017-06-25T17:54:57.027Z,8.20
2017-06-25T17:57:30.663Z,7.40
2017-06-25T18:00:02.680Z,7.10
2017-06-25T18:02:35.118Z,7.40
2017-06-25T18:05:08.403Z,8.33
2017-06-25T18:07:41.299Z,8.90
2017-06-25T18:10:13.256Z,8.10
2017-06-25T18:12:46.276Z,13.33
2017-06-25T18:15:19.486Z,8.57
2017-06-25T18:17:51.435Z,8.37
2017-06-25T18:20:24.378Z,8.90
2017-06-25T18:22:56.887Z,7.93
2017-06-25T18:25:29.547Z,8.40
2017-06-25T18:28:01.915Z,9.40
2017-06-25T18:30:34.351Z,8.97
2017-06-25T18:33:06.524Z,9.93
2017-06-25T18:35:39.955Z,8.40
2017-06-25T18:38:13.559Z,8.43
2017-06-25T18:40:48.103Z,9.90
2017-06-25T18:43:20.391Z,11.60
2017-06-25T18:45:52.795Z,9.40
2017-06-25T18:48:25.148Z,13.93
2017-06-25T18:50:57.572Z,10.83
2017-06-25T18:53:29.861Z,11.03
2017-06-25T18:56:02.147Z,10.10
2017-06-25T18:58:34.450Z,11.33
2017-06-25T19:01:06.854Z,9.00
2017-06-25T19:03:39.191Z,10.63
2017-06-25T19:06:11.849Z,9.60
2017-06-25T19:08:43.847Z,8.67
2017-06-25T19:11:16.316Z,9.57
2017-06-25T19:13:49.671Z,9.50
2017-06-25T19:16:21.975Z,8.70
2017-06-25T19:18:54.330Z,11.60
2017-06-25T19:21:27.458Z,9.17
2017-06-25T19:24:00.644Z,11.43
2017-06-25T19:26:33.475Z,10.10
2017-06-25T19:29:06.175Z,9.77
2017-06-25T19:31:38.342Z,9.40
2017-06-25T19:34:10.651Z,8.67
2017-06-25T19:36:42.946Z,10.07
2017-06-25T19:39:16.695Z,12.60
2017-06-25T19:41:49.585Z,12.53
2017-06-25T19:44:22.082Z,9.07
2017-06-25T19:46:54.439Z,10.00
2017-06-25T19:49:26.838Z,10.43
2017-06-25T19:51:59.949Z,11.13
2017-06-25T19:54:32.991Z,11.47
2017-06-25T19:57:05.766Z,10.67
2017-06-25T19:59:38.260Z,11.50
2017-06-25T20:02:11.580Z,10.83
2017-06-25T20:04:44.278Z,10.67
2017-06-25T20:07:16.488Z,12.03
2017-06-25T20:12:48.540Z,11.07
2017-06-25T20:15:20.939Z,9.53
2017-06-25T20:17:53.280Z,10.20
2017-06-25T20:20:25.543Z,9.97
2017-06-25T20:22:58.209Z,9.70
2017-06-25T20:25:30.475Z,11.50
2017-06-25T20:28:02.949Z,10.90
2017-06-25T20:30:35.523Z,17.27
2017-06-25T20:33:07.896Z,10.97
2017-06-25T20:35:40.651Z,9.80
2017-06-25T20:38:12.765Z,11.60
2017-06-25T20:40:45.239Z,10.90
2017-06-25T20:43:17.539Z,11.47
2017-06-25T20:45:49.880Z,10.93
2017-06-25T20:48:22.406Z,11.13
2017-06-25T20:50:54.580Z,11.30
2017-06-25T20:53:26.952Z,10.90
2017-06-25T20:55:59.399Z,11.83
2017-06-25T20:58:31.683Z,11.97
2017-06-25T21:01:03.872Z,11.63
2017-06-25T21:03:36.255Z,11.00
2017-06-25T21:06:08.857Z,12.23
2017-06-25T21:08:41.321Z,11.97
2017-06-25T21:11:13.507Z,12.97
2017-06-25T21:13:45.961Z,12.30
2017-06-25T21:16:18.151Z,16.40
2017-06-25T21:18:50.633Z,12.90
2017-06-25T21:21:23.052Z,12.77
2017-06-25T21:23:55.486Z,12.00
2017-06-25T21:26:27.821Z,12.60
2017-06-25T21:29:00.438Z,13.43
2017-06-25T21:31:32.878Z,12.70
2017-06-25T21:34:05.013Z,12.80
2017-06-25T21:36:37.377Z,12.00
2017-06-25T21:39:09.732Z,13.00
2017-06-25T21:41:42.055Z,12.90
2017-06-25T21:44:14.372Z,12.63
2017-06-25T21:46:46.611Z,14.10
2017-06-25T21:49:19.165Z,13.13
2017-06-25T21:51:51.402Z,14.53
2017-06-25T21:54:23.663Z,15.93
2017-06-25T21:56:56.052Z,14.50
2017-06-25T21:59:28.236Z,16.50
2017-06-25T22:02:00.657Z,16.30
2017-06-25T22:04:32.921Z,14.67
2017-06-25T22:07:05.273Z,17.23
2017-06-25T22:09:37.603Z,15.63
2017-06-25T22:12:09.764Z,16.30
2017-06-25T22:14:42.164Z,19.87
2017-06-25T22:17:14.471Z,15.47
2017-06-25T22:19:47.170Z,16.20
2017-06-25T22:22:19.324Z,15.83
2017-06-25T22:24:51.676Z,17.20
2017-06-25T22:27:24.239Z,16.47
2017-06-25T22:29:56.616Z,17.10
2017-06-25T22:32:28.848Z,19.30
2017-06-25T22:35:01.293Z,19.43
2017-06-25T22:37:34.069Z,16.87
2017-06-25T22:40:06.100Z,23.70
2017-06-25T22:42:38.539Z,18.87
2017-06-25T22:45:10.799Z,18.60
2017-06-25T22:47:43.187Z,23.17
2017-06-25T22:50:15.559Z,18.07
2017-06-25T22:52:48.183Z,20.00
2017-06-25T22:55:20.539Z,20.93
2017-06-25T22:57:52.964Z,20.83
2017-06-25T23:00:25.340Z,21.27
2017-06-25T23:02:57.723Z,19.17
2017-06-25T23:05:30.137Z,20.50
2017-06-25T23:08:02.469Z,19.87
2017-06-25T23:10:34.939Z,23.60
2017-06-25T23:13:07.370Z,20.87
2017-06-25T23:15:39.828Z,21.37
2017-06-25T23:18:12.195Z,21.37
2017-06-25T23:20:44.470Z,22.50
2017-06-25T23:23:16.675Z,21.00
2017-06-25T23:25:49.143Z,19.23
2017-06-25T23:28:21.414Z,20.23
2017-06-25T23:30:53.730Z,20.60
2017-06-25T23:33:26.067Z,20.97
2017-06-25T23:35:58.475Z,18.83
2017-06-25T23:38:30.847Z,21.77
2017-06-25T23:41:03.239Z,20.17
2017-06-25T23:43:35.507Z,21.23
2017-06-25T23:46:07.879Z,20.03
2017-06-25T23:48:40.159Z,24.53
2017-06-25T23:51:12.637Z,19.23
2017-06-25T23:53:44.970Z,20.13
2017-06-25T23:56:17.288Z,20.63
2017-06-25T23:58:49.665Z,22.30
